createdAt,value
2017-12-17T00:00:10.679Z,3.3
2017-12-17T00:05:13.276Z,3.3
2017-12-17T00:15:02.728Z,3.4
2017-12-17T00:20:03.120Z,3.4
2017-12-17T00:25:10.751Z,3.3
2017-12-17T00:30:07.693Z,3.3
2017-12-17T00:35:07.773Z,3.4
2017-12-17T00:40:05.099Z,3.4
2017-12-17T00:45:18.323Z,3.4
2017-12-17T00:50:02.517Z,3.4
2017-12-17T00:55:05.141Z,3.4
2017-12-17T01:00:05.494Z,3.4
2017-12-17T01:05:25.832Z,3.4
2017-12-17T01:10:02.966Z,3.4
2017-12-17T01:15:05.044Z,3.4
2017-12-17T01:20:02.896Z,3.4
2017-12-17T01:25:05.496Z,3.1
2017-12-17T01:30:05.913Z,3
2017-12-17T01:35:02.444Z,3
2017-12-17T01:40:03.293Z,2.9
2017-12-17T01:45:02.833Z,2.9
2017-12-17T01:50:17.523Z,2.9
2017-12-17T01:55:05.828Z,2.9
2017-12-17T02:00:05.357Z,2.9
2017-12-17T02:05:02.799Z,2.9
2017-12-17T02:10:05.233Z,2.9
2017-12-17T02:15:05.763Z,2.9
2017-12-17T02:20:07.743Z,2.9
2017-12-17T02:25:02.775Z,3
2017-12-17T02:30:36.107Z,3
2017-12-17T02:35:20.967Z,3
2017-12-17T02:40:03.255Z,3
2017-12-17T02:45:02.756Z,2.9
2017-12-17T02:50:08.211Z,3
2017-12-17T02:55:21.065Z,3
2017-12-17T03:00:10.262Z,2.9
2017-12-17T03:05:02.735Z,3
2017-12-17T03:10:10.272Z,2.9
2017-12-17T03:15:08.261Z,2.8
2017-12-17T03:20:07.701Z,2.8
2017-12-17T03:25:07.771Z,2.7
2017-12-17T03:30:05.628Z,2.7
2017-12-17T03:35:03.137Z,2.6
2017-12-17T03:40:08.217Z,2.6
2017-12-17T03:45:02.588Z,2.6
2017-12-17T03:50:03.009Z,2.7
2017-12-17T03:55:18.278Z,2.7
2017-12-17T04:00:02.505Z,2.7
2017-12-17T04:05:02.646Z,2.7
2017-12-17T04:10:02.586Z,2.6
2017-12-17T04:15:08.244Z,2.7
2017-12-17T04:20:20.304Z,2.7
2017-12-17T04:25:02.596Z,2.6
2017-12-17T04:30:05.560Z,2.7
2017-12-17T04:35:05.671Z,2.7
2017-12-17T04:40:10.615Z,2.7
2017-12-17T04:45:07.647Z,2.7
2017-12-17T04:50:02.991Z,2.7
2017-12-17T04:55:05.565Z,2.7
2017-12-17T05:00:02.530Z,2.6
2017-12-17T05:05:02.517Z,2.7
2017-12-17T05:10:07.543Z,2.7
2017-12-17T05:15:30.787Z,2.6
2017-12-17T05:20:08.492Z,2.6
2017-12-17T05:25:27.764Z,2.6
2017-12-17T05:30:05.362Z,2.6
2017-12-17T05:35:02.976Z,2.6
2017-12-17T05:40:02.785Z,2.3
2017-12-17T05:45:08.351Z,1.8
2017-12-17T05:50:05.195Z,1.8
2017-12-17T05:55:10.222Z,1.7
2017-12-17T06:00:35.983Z,1.9
2017-12-17T06:05:05.541Z,1.9
2017-12-17T06:10:05.473Z,2
2017-12-17T06:15:05.913Z,2
2017-12-17T06:20:02.739Z,2
2017-12-17T06:25:05.316Z,2.1
2017-12-17T06:30:06.056Z,2.1
2017-12-17T06:35:05.676Z,2.1
2017-12-17T06:40:15.778Z,2.1
2017-12-17T06:45:07.670Z,2.2
2017-12-17T06:50:05.527Z,2.2
2017-12-17T06:55:08.103Z,2.2
2017-12-17T07:00:04.944Z,2.2
2017-12-17T07:05:02.506Z,2.2
2017-12-17T07:10:03.368Z,2.2
2017-12-17T07:15:02.834Z,2.2
2017-12-17T07:20:08.281Z,2.2
2017-12-17T07:25:03.174Z,2.2
2017-12-17T07:30:02.569Z,2.2
2017-12-17T07:35:05.090Z,2.3
2017-12-17T07:40:05.027Z,2.2
2017-12-17T07:45:05.525Z,2.2
2017-12-17T07:50:03.303Z,2.2
2017-12-17T07:55:05.863Z,2.2
2017-12-17T08:00:02.731Z,2.2
2017-12-17T08:05:05.188Z,2.1
2017-12-17T08:10:07.666Z,2.2
2017-12-17T08:15:10.754Z,2.1
2017-12-17T08:20:05.044Z,2.2
2017-12-17T08:25:02.617Z,2.1
2017-12-17T08:30:05.611Z,2.2
2017-12-17T08:35:05.617Z,2.1
2017-12-17T08:40:10.696Z,2.1
2017-12-17T08:45:05.150Z,2.1
2017-12-17T08:50:08.097Z,2.1
2017-12-17T08:55:03.117Z,2.1
2017-12-17T09:00:05.121Z,2.4
2017-12-17T09:05:17.837Z,2.4
2017-12-17T09:10:07.631Z,2.2
2017-12-17T09:15:05.733Z,2.1
2017-12-17T09:20:07.647Z,2.1
2017-12-17T09:25:15.399Z,1.9
2017-12-17T09:30:05.608Z,1.9
2017-12-17T09:35:23.372Z,1.9
2017-12-17T09:40:05.633Z,2
2017-12-17T09:45:05.136Z,2
2017-12-17T09:50:03.103Z,2
2017-12-17T09:55:03.161Z,2
2017-12-17T10:00:02.613Z,2
2017-12-17T10:05:05.186Z,2
2017-12-17T10:10:07.659Z,2
2017-12-17T10:15:03.165Z,2
2017-12-17T10:20:02.619Z,2.1
2017-12-17T10:25:02.749Z,2.1
2017-12-17T10:30:23.379Z,2.2
2017-12-17T10:35:03.227Z,2.2
2017-12-17T10:40:03.189Z,2.2
2017-12-17T10:45:07.817Z,2.3
2017-12-17T10:50:38.634Z,2.4
2017-12-17T10:55:08.346Z,2.4
2017-12-17T11:00:02.819Z,2.4
2017-12-17T11:05:02.963Z,2.4
2017-12-17T11:10:10.485Z,2.4
2017-12-17T11:15:07.593Z,2.4
2017-12-17T11:20:10.523Z,2.4
2017-12-17T11:25:05.468Z,2.3
2017-12-17T11:30:05.898Z,2.4
2017-12-17T11:35:04.989Z,2.5
2017-12-17T11:40:08.430Z,2.5
2017-12-17T11:45:02.977Z,2.5
2017-12-17T11:50:15.100Z,2.5
2017-12-17T11:55:05.096Z,2.5
2017-12-17T12:00:05.621Z,2.5
2017-12-17T12:05:05.624Z,2.5
2017-12-17T12:10:03.103Z,2.5
2017-12-17T12:15:05.188Z,2.4
2017-12-17T12:20:20.776Z,2.3
2017-12-17T12:25:05.698Z,2.2
2017-12-17T12:30:02.523Z,2.2
2017-12-17T12:35:05.172Z,2.1
2017-12-17T12:40:02.564Z,2.1
2017-12-17T12:45:05.671Z,2.2
2017-12-17T12:50:05.022Z,2.3
2017-12-17T12:55:05.104Z,2.3
2017-12-17T13:00:05.586Z,2.3
2017-12-17T13:05:23.352Z,2.3
2017-12-17T13:10:03.328Z,2.3
2017-12-17T13:15:15.248Z,2.4
2017-12-17T13:20:10.562Z,2.4
2017-12-17T13:25:08.194Z,2.4
2017-12-17T13:30:05.036Z,2.4
2017-12-17T13:35:05.227Z,2.4
2017-12-17T13:40:15.206Z,2.3
2017-12-17T13:45:05.756Z,2.3
2017-12-17T13:50:05.189Z,2.4
2017-12-17T13:55:02.791Z,2.4
2017-12-17T14:00:05.738Z,2.4
2017-12-17T14:05:05.889Z,2.4
2017-12-17T14:10:05.870Z,2.5
2017-12-17T14:15:05.392Z,2.5
2017-12-17T14:20:21.044Z,2.4
2017-12-17T14:25:02.421Z,2.5
2017-12-17T14:30:05.496Z,2.4
2017-12-17T14:35:10.563Z,2.4
2017-12-17T14:40:07.969Z,2.4
2017-12-17T14:45:02.494Z,2.3
2017-12-17T14:50:05.448Z,2
2017-12-17T14:55:08.041Z,1.9
2017-12-17T15:05:04.993Z,1.8
2017-12-17T15:10:07.490Z,1.8
2017-12-17T15:15:13.081Z,1.9
2017-12-17T15:20:05.879Z,1.9
2017-12-17T15:25:02.449Z,1.9
2017-12-17T15:30:20.647Z,2
2017-12-17T15:35:10.567Z,2
2017-12-17T15:40:05.628Z,2
2017-12-17T15:45:05.168Z,2
2017-12-17T15:50:28.408Z,2.1
2017-12-17T15:55:05.809Z,2.1
2017-12-17T16:00:02.683Z,2.1
2017-12-17T16:05:02.847Z,2.1
2017-12-17T16:10:07.945Z,2.1
2017-12-17T16:15:02.392Z,2.1
2017-12-17T16:25:13.080Z,2
2017-12-17T16:30:03.298Z,2
2017-12-17T16:35:04.903Z,2
2017-12-17T16:40:05.849Z,2
2017-12-17T16:45:02.887Z,2
2017-12-17T16:50:05.841Z,2
2017-12-17T16:55:08.407Z,2
2017-12-17T17:00:02.781Z,2
2017-12-17T17:05:05.356Z,2
2017-12-17T17:10:05.290Z,1.9
2017-12-17T17:15:02.368Z,1.9
2017-12-17T17:20:02.817Z,1.9
2017-12-17T17:25:05.535Z,1.9
2017-12-17T17:30:05.844Z,1.9
2017-12-17T17:35:16.036Z,1.9
2017-12-17T17:40:02.359Z,1.9
2017-12-17T17:45:08.029Z,2
2017-12-17T17:50:04.982Z,1.9
2017-12-17T17:55:02.472Z,2
2017-12-17T18:00:10.494Z,2
2017-12-17T18:05:05.520Z,2
2017-12-17T18:10:13.083Z,2
2017-12-17T18:15:02.513Z,2
2017-12-17T18:20:02.982Z,2
2017-12-17T18:25:15.632Z,2
2017-12-17T18:30:04.950Z,2
2017-12-17T18:35:05.092Z,2
2017-12-17T18:40:20.223Z,2
2017-12-17T18:45:13.231Z,2
2017-12-17T18:50:12.735Z,1.9
2017-12-17T18:55:02.709Z,1.9
2017-12-17T19:00:03.168Z,1.9
2017-12-17T19:05:03.349Z,2
2017-12-17T19:10:26.124Z,1.9
2017-12-17T19:15:05.438Z,1.9
2017-12-17T19:20:12.605Z,1.9
2017-12-17T19:25:02.560Z,1.9
2017-12-17T19:30:08.064Z,1.9
2017-12-17T19:35:08.255Z,1.9
2017-12-17T19:40:05.773Z,1.9
2017-12-17T19:45:07.897Z,1.9
2017-12-17T19:50:03.284Z,1.9
2017-12-17T19:55:04.991Z,1.9
2017-12-17T20:00:05.460Z,1.9
2017-12-17T20:05:03.110Z,1.9
2017-12-17T20:10:20.859Z,1.9
2017-12-17T20:15:12.857Z,1.9
2017-12-17T20:20:03.241Z,1.9
2017-12-17T20:25:05.032Z,1.9
2017-12-17T20:30:10.478Z,1.9
2017-12-17T20:35:15.705Z,1.9
2017-12-17T20:40:03.010Z,1.9
2017-12-17T20:45:05.188Z,1.9
2017-12-17T20:50:05.859Z,1.9
2017-12-17T20:55:08.417Z,2
2017-12-17T21:00:10.398Z,1.9
2017-12-17T21:05:02.997Z,1.9
2017-12-17T21:10:02.990Z,1.9
2017-12-17T21:15:07.745Z,1.9
2017-12-17T21:25:08.401Z,1.9
2017-12-17T21:30:15.398Z,1.9
2017-12-17T21:35:08.006Z,1.9
2017-12-17T21:40:05.504Z,1.9
2017-12-17T21:45:07.694Z,1.9
2017-12-17T21:50:05.628Z,1.9
2017-12-17T21:55:08.398Z,1.9
2017-12-17T22:00:02.878Z,1.9
2017-12-17T22:05:05.446Z,1.9
2017-12-17T22:10:02.930Z,1.9
2017-12-17T22:15:02.639Z,1.9
2017-12-17T22:20:05.556Z,1.9
2017-12-17T22:25:03.206Z,1.9
2017-12-17T22:30:20.309Z,2
2017-12-17T22:35:02.808Z,1.9
2017-12-17T22:40:05.300Z,1.9
2017-12-17T22:45:07.497Z,1.9
2017-12-17T22:50:02.967Z,1.9
2017-12-17T22:55:03.078Z,1.9
2017-12-17T23:00:07.583Z,1.9
2017-12-17T23:05:05.284Z,1.9
2017-12-17T23:10:02.766Z,1.9
2017-12-17T23:15:12.557Z,1.9
2017-12-17T23:20:18.264Z,1.9
2017-12-17T23:25:03.186Z,1.9
2017-12-17T23:30:12.859Z,1.9
2017-12-17T23:35:02.913Z,1.9
2017-12-17T23:40:05.502Z,1.9
2017-12-17T23:45:07.668Z,1.8
2017-12-17T23:50:03.115Z,1.8
2017-12-17T23:55:10.944Z,1.8
